Saint-Eustache, Canada
Current Conditions -  °F | °C
As of 3:00 PM on Sunday 23 Nov 2014 (Local Time) from CYMX Reporting Station
Moderate Fog Moderate Fog  
Wind Chill:   Ceiling: 100
Heat Index:   Visibility: 0.5mi
Dew Point:   Wind: 3mph
Humidity: 100%   Direction: 170°S
Pressure: 30.01"   Gusts: NA
Location:  45.57°N, 73.9°W
Report Text: CYMX 232000Z 17003KT 1/2SM R24/2800V5000FT/U FG VV001 04/04 A3001 RMK FG8 SLP166
Loading
Personal Weather Stations






























Interactive Weather Map New forecast layout! Learn more

10-Day Weather Forecast

Advertisements
Track Severe Weather on mobile